sensor_id;sensor_type;location;lat;lon;timestamp;P1;durP1;ratioP1;P2;durP2;ratioP2
24761;SDS011;12865;51.934;10.330;2023-04-01T00:02:27;3.10;;;1.35;;
24761;SDS011;12865;51.934;10.330;2023-04-01T00:05:13;4.18;;;1.45;;
24761;SDS011;12865;51.934;10.330;2023-04-01T00:07:59;5.18;;;1.15;;
24761;SDS011;12865;51.934;10.330;2023-04-01T00:10:46;2.35;;;1.35;;
24761;SDS011;12865;51.934;10.330;2023-04-01T00:13:31;3.95;;;1.33;;
24761;SDS011;12865;51.934;10.330;2023-04-01T00:16:17;3.72;;;1.50;;
24761;SDS011;12865;51.934;10.330;2023-04-01T00:19:03;3.35;;;1.48;;
24761;SDS011;12865;51.934;10.330;2023-04-01T00:21:49;3.10;;;1.42;;
24761;SDS011;12865;51.934;10.330;2023-04-01T00:24:34;4.07;;;1.42;;
24761;SDS011;12865;51.934;10.330;2023-04-01T00:27:20;3.25;;;0.98;;
24761;SDS011;12865;51.934;10.330;2023-04-01T00:30:06;3.38;;;1.50;;
24761;SDS011;12865;51.934;10.330;2023-04-01T00:32:52;3.55;;;1.27;;
24761;SDS011;12865;51.934;10.330;2023-04-01T00:35:38;2.30;;;1.30;;
24761;SDS011;12865;51.934;10.330;2023-04-01T00:38:24;4.95;;;1.45;;
24761;SDS011;12865;51.934;10.330;2023-04-01T00:41:10;3.83;;;1.40;;
24761;SDS011;12865;51.934;10.330;2023-04-01T00:47:10;4.88;;;1.35;;
24761;SDS011;12865;51.934;10.330;2023-04-01T00:49:56;4.47;;;1.40;;
24761;SDS011;12865;51.934;10.330;2023-04-01T00:52:42;3.53;;;1.50;;
24761;SDS011;12865;51.934;10.330;2023-04-01T00:55:28;2.92;;;1.30;;
24761;SDS011;12865;51.934;10.330;2023-04-01T00:58:20;5.38;;;1.20;;
24761;SDS011;12865;51.934;10.330;2023-04-01T01:01:07;3.65;;;1.38;;
24761;SDS011;12865;51.934;10.330;2023-04-01T01:03:54;3.58;;;1.65;;
24761;SDS011;12865;51.934;10.330;2023-04-01T01:06:44;3.92;;;2.30;;
24761;SDS011;12865;51.934;10.330;2023-04-01T01:09:51;2.38;;;1.48;;
24761;SDS011;12865;51.934;10.330;2023-04-01T01:16:03;4.03;;;1.58;;
24761;SDS011;12865;51.934;10.330;2023-04-01T01:20:09;4.35;;;1.38;;
24761;SDS011;12865;51.934;10.330;2023-04-01T01:25:32;4.53;;;1.58;;
24761;SDS011;12865;51.934;10.330;2023-04-01T01:38:05;4.20;;;1.35;;
24761;SDS011;12865;51.934;10.330;2023-04-01T01:40:55;3.92;;;1.30;;
24761;SDS011;12865;51.934;10.330;2023-04-01T01:43:43;4.10;;;1.30;;
24761;SDS011;12865;51.934;10.330;2023-04-01T01:46:32;4.28;;;1.48;;
24761;SDS011;12865;51.934;10.330;2023-04-01T01:49:18;2.25;;;1.30;;
24761;SDS011;12865;51.934;10.330;2023-04-01T01:52:05;2.60;;;1.20;;
24761;SDS011;12865;51.934;10.330;2023-04-01T01:54:51;3.53;;;1.42;;
24761;SDS011;12865;51.934;10.330;2023-04-01T01:57:38;2.92;;;1.10;;
24761;SDS011;12865;51.934;10.330;2023-04-01T02:00:24;3.80;;;1.40;;
24761;SDS011;12865;51.934;10.330;2023-04-01T02:03:12;3.63;;;1.52;;
24761;SDS011;12865;51.934;10.330;2023-04-01T02:06:00;3.88;;;1.27;;
24761;SDS011;12865;51.934;10.330;2023-04-01T02:08:53;3.30;;;1.30;;
24761;SDS011;12865;51.934;10.330;2023-04-01T02:11:43;5.18;;;1.40;;
24761;SDS011;12865;51.934;10.330;2023-04-01T02:14:52;4.57;;;1.60;;
24761;SDS011;12865;51.934;10.330;2023-04-01T02:17:40;2.97;;;1.35;;
24761;SDS011;12865;51.934;10.330;2023-04-01T02:20:30;2.28;;;1.05;;
24761;SDS011;12865;51.934;10.330;2023-04-01T02:23:16;5.18;;;1.88;;
24761;SDS011;12865;51.934;10.330;2023-04-01T02:26:03;4.53;;;1.20;;
24761;SDS011;12865;51.934;10.330;2023-04-01T02:28:52;5.57;;;1.30;;
24761;SDS011;12865;51.934;10.330;2023-04-01T02:31:39;4.85;;;1.20;;
24761;SDS011;12865;51.934;10.330;2023-04-01T02:34:27;2.55;;;1.17;;
24761;SDS011;12865;51.934;10.330;2023-04-01T02:37:13;1.80;;;1.08;;
24761;SDS011;12865;51.934;10.330;2023-04-01T02:40:03;1.83;;;1.30;;
24761;SDS011;12865;51.934;10.330;2023-04-01T02:42:51;3.65;;;1.30;;
24761;SDS011;12865;51.934;10.330;2023-04-01T02:45:37;3.17;;;1.08;;
24761;SDS011;12865;51.934;10.330;2023-04-01T02:48:23;6.00;;;1.20;;
24761;SDS011;12865;51.934;10.330;2023-04-01T02:51:09;5.05;;;1.08;;
24761;SDS011;12865;51.934;10.330;2023-04-01T02:53:55;5.65;;;1.58;;
24761;SDS011;12865;51.934;10.330;2023-04-01T02:56:40;3.20;;;0.97;;
24761;SDS011;12865;51.934;10.330;2023-04-01T02:59:26;3.28;;;1.05;;
24761;SDS011;12865;51.934;10.330;2023-04-01T03:02:12;3.40;;;1.00;;
24761;SDS011;12865;51.934;10.330;2023-04-01T03:04:57;2.47;;;1.08;;
24761;SDS011;12865;51.934;10.330;2023-04-01T03:07:43;3.63;;;1.45;;
24761;SDS011;12865;51.934;10.330;2023-04-01T03:10:29;3.20;;;1.10;;
24761;SDS011;12865;51.934;10.330;2023-04-01T03:13:15;6.38;;;1.15;;
24761;SDS011;12865;51.934;10.330;2023-04-01T03:16:01;4.40;;;0.93;;
24761;SDS011;12865;51.934;10.330;2023-04-01T03:18:47;3.38;;;1.00;;
24761;SDS011;12865;51.934;10.330;2023-04-01T03:21:34;2.13;;;0.80;;
24761;SDS011;12865;51.934;10.330;2023-04-01T03:24:20;2.42;;;0.98;;
24761;SDS011;12865;51.934;10.330;2023-04-01T03:27:06;2.17;;;0.93;;
24761;SDS011;12865;51.934;10.330;2023-04-01T03:29:51;2.78;;;1.10;;
24761;SDS011;12865;51.934;10.330;2023-04-01T03:32:37;2.17;;;0.90;;
24761;SDS011;12865;51.934;10.330;2023-04-01T03:35:23;1.13;;;1.02;;
24761;SDS011;12865;51.934;10.330;2023-04-01T03:38:08;3.78;;;1.25;;
24761;SDS011;12865;51.934;10.330;2023-04-01T03:40:54;1.95;;;1.20;;
24761;SDS011;12865;51.934;10.330;2023-04-01T03:43:40;3.70;;;1.17;;
24761;SDS011;12865;51.934;10.330;2023-04-01T03:46:26;4.32;;;0.95;;
24761;SDS011;12865;51.934;10.330;2023-04-01T03:49:11;2.50;;;1.23;;
24761;SDS011;12865;51.934;10.330;2023-04-01T03:51:57;1.85;;;0.80;;
24761;SDS011;12865;51.934;10.330;2023-04-01T03:54:43;3.53;;;0.90;;
24761;SDS011;12865;51.934;10.330;2023-04-01T03:57:30;1.17;;;1.00;;
24761;SDS011;12865;51.934;10.330;2023-04-01T04:00:16;2.30;;;0.95;;
24761;SDS011;12865;51.934;10.330;2023-04-01T04:03:02;3.05;;;1.20;;
24761;SDS011;12865;51.934;10.330;2023-04-01T04:05:48;1.88;;;0.90;;
24761;SDS011;12865;51.934;10.330;2023-04-01T04:08:34;2.85;;;1.17;;
24761;SDS011;12865;51.934;10.330;2023-04-01T04:11:20;3.42;;;0.90;;
24761;SDS011;12865;51.934;10.330;2023-04-01T04:14:07;3.85;;;1.20;;
24761;SDS011;12865;51.934;10.330;2023-04-01T04:16:52;2.33;;;0.90;;
24761;SDS011;12865;51.934;10.330;2023-04-01T04:19:38;1.50;;;0.93;;
24761;SDS011;12865;51.934;10.330;2023-04-01T04:22:24;3.28;;;1.10;;
24761;SDS011;12865;51.934;10.330;2023-04-01T04:25:10;2.22;;;0.90;;
24761;SDS011;12865;51.934;10.330;2023-04-01T04:27:55;1.52;;;1.00;;
24761;SDS011;12865;51.934;10.330;2023-04-01T04:30:41;1.98;;;1.10;;
24761;SDS011;12865;51.934;10.330;2023-04-01T04:33:26;3.58;;;1.10;;
24761;SDS011;12865;51.934;10.330;2023-04-01T04:36:12;4.20;;;1.30;;
24761;SDS011;12865;51.934;10.330;2023-04-01T04:38:58;2.25;;;1.20;;
24761;SDS011;12865;51.934;10.330;2023-04-01T04:41:47;2.40;;;1.20;;
24761;SDS011;12865;51.934;10.330;2023-04-01T04:44:32;2.67;;;1.08;;
24761;SDS011;12865;51.934;10.330;2023-04-01T04:47:18;3.15;;;0.98;;
24761;SDS011;12865;51.934;10.330;2023-04-01T04:50:04;1.30;;;0.98;;
24761;SDS011;12865;51.934;10.330;2023-04-01T04:52:50;2.67;;;1.00;;
24761;SDS011;12865;51.934;10.330;2023-04-01T04:55:36;3.78;;;1.23;;
24761;SDS011;12865;51.934;10.330;2023-04-01T04:58:22;1.95;;;1.10;;
24761;SDS011;12865;51.934;10.330;2023-04-01T05:01:11;2.47;;;1.10;;
24761;SDS011;12865;51.934;10.330;2023-04-01T05:03:59;1.30;;;1.10;;
24761;SDS011;12865;51.934;10.330;2023-04-01T05:06:45;3.92;;;0.90;;
24761;SDS011;12865;51.934;10.330;2023-04-01T05:09:31;2.25;;;1.17;;
24761;SDS011;12865;51.934;10.330;2023-04-01T05:12:17;2.70;;;1.10;;
24761;SDS011;12865;51.934;10.330;2023-04-01T05:15:04;2.00;;;1.00;;
24761;SDS011;12865;51.934;10.330;2023-04-01T05:17:50;0.70;;;0.70;;
24761;SDS011;12865;51.934;10.330;2023-04-01T05:20:36;2.97;;;1.10;;
24761;SDS011;12865;51.934;10.330;2023-04-01T05:23:22;2.33;;;0.93;;
24761;SDS011;12865;51.934;10.330;2023-04-01T05:26:09;0.80;;;0.75;;
24761;SDS011;12865;51.934;10.330;2023-04-01T05:28:57;2.10;;;1.00;;
24761;SDS011;12865;51.934;10.330;2023-04-01T05:31:42;3.03;;;0.90;;
24761;SDS011;12865;51.934;10.330;2023-04-01T05:34:28;1.50;;;1.00;;
24761;SDS011;12865;51.934;10.330;2023-04-01T05:37:14;3.53;;;1.10;;
24761;SDS011;12865;51.934;10.330;2023-04-01T05:39:59;1.13;;;0.88;;
24761;SDS011;12865;51.934;10.330;2023-04-01T05:42:45;2.00;;;1.00;;
24761;SDS011;12865;51.934;10.330;2023-04-01T05:45:30;1.25;;;0.90;;
24761;SDS011;12865;51.934;10.330;2023-04-01T05:48:16;1.65;;;1.27;;
24761;SDS011;12865;51.934;10.330;2023-04-01T05:51:02;2.35;;;0.80;;
24761;SDS011;12865;51.934;10.330;2023-04-01T05:53:49;0.77;;;0.60;;
24761;SDS011;12865;51.934;10.330;2023-04-01T05:56:34;2.35;;;0.90;;
24761;SDS011;12865;51.934;10.330;2023-04-01T05:59:20;2.40;;;1.00;;
24761;SDS011;12865;51.934;10.330;2023-04-01T06:02:06;1.88;;;0.70;;
24761;SDS011;12865;51.934;10.330;2023-04-01T06:04:54;3.40;;;0.85;;
24761;SDS011;12865;51.934;10.330;2023-04-01T06:08:00;1.67;;;0.90;;
24761;SDS011;12865;51.934;10.330;2023-04-01T06:35:17;0.90;;;0.70;;
24761;SDS011;12865;51.934;10.330;2023-04-01T06:41:21;4.72;;;0.90;;
24761;SDS011;12865;51.934;10.330;2023-04-01T06:47:23;0.85;;;0.65;;
24761;SDS011;12865;51.934;10.330;2023-04-01T06:56:09;1.25;;;0.80;;
24761;SDS011;12865;51.934;10.330;2023-04-01T06:59:17;3.47;;;0.70;;
24761;SDS011;12865;51.934;10.330;2023-04-01T07:02:18;3.45;;;0.98;;
24761;SDS011;12865;51.934;10.330;2023-04-01T07:05:10;0.77;;;0.70;;
24761;SDS011;12865;51.934;10.330;2023-04-01T07:07:58;1.05;;;0.60;;
24761;SDS011;12865;51.934;10.330;2023-04-01T07:11:01;1.42;;;0.60;;
24761;SDS011;12865;51.934;10.330;2023-04-01T07:13:51;1.33;;;0.90;;
24761;SDS011;12865;51.934;10.330;2023-04-01T07:17:03;2.53;;;1.00;;
24761;SDS011;12865;51.934;10.330;2023-04-01T07:22:59;3.50;;;1.00;;
24761;SDS011;12865;51.934;10.330;2023-04-01T07:25:51;0.70;;;0.70;;
24761;SDS011;12865;51.934;10.330;2023-04-01T07:28:39;1.85;;;0.85;;
24761;SDS011;12865;51.934;10.330;2023-04-01T07:42:57;2.05;;;0.75;;
24761;SDS011;12865;51.934;10.330;2023-04-01T07:46:02;2.13;;;0.82;;
24761;SDS011;12865;51.934;10.330;2023-04-01T07:49:17;1.00;;;0.50;;
24761;SDS011;12865;51.934;10.330;2023-04-01T07:52:09;1.55;;;0.70;;
24761;SDS011;12865;51.934;10.330;2023-04-01T07:55:10;1.27;;;0.73;;
24761;SDS011;12865;51.934;10.330;2023-04-01T08:00:58;1.25;;;0.68;;
24761;SDS011;12865;51.934;10.330;2023-04-01T08:06:45;4.07;;;0.73;;
24761;SDS011;12865;51.934;10.330;2023-04-01T08:21:52;1.77;;;0.60;;
24761;SDS011;12865;51.934;10.330;2023-04-01T08:24:43;1.45;;;0.60;;
24761;SDS011;12865;51.934;10.330;2023-04-01T08:27:33;0.77;;;0.47;;
24761;SDS011;12865;51.934;10.330;2023-04-01T08:30:35;1.63;;;0.47;;
24761;SDS011;12865;51.934;10.330;2023-04-01T08:33:29;1.02;;;0.45;;
24761;SDS011;12865;51.934;10.330;2023-04-01T08:36:24;1.65;;;0.60;;
24761;SDS011;12865;51.934;10.330;2023-04-01T08:49:00;2.33;;;0.75;;
24761;SDS011;12865;51.934;10.330;2023-04-01T08:52:09;0.60;;;0.50;;
24761;SDS011;12865;51.934;10.330;2023-04-01T09:04:54;1.27;;;0.80;;
24761;SDS011;12865;51.934;10.330;2023-04-01T09:11:17;2.25;;;0.52;;
24761;SDS011;12865;51.934;10.330;2023-04-01T09:20:55;0.50;;;0.50;;
24761;SDS011;12865;51.934;10.330;2023-04-01T09:26:58;1.38;;;0.60;;
24761;SDS011;12865;51.934;10.330;2023-04-01T09:36:04;0.30;;;0.30;;
24761;SDS011;12865;51.934;10.330;2023-04-01T09:38:57;0.77;;;0.57;;
24761;SDS011;12865;51.934;10.330;2023-04-01T09:45:07;0.98;;;0.43;;
24761;SDS011;12865;51.934;10.330;2023-04-01T09:57:41;0.98;;;0.50;;
24761;SDS011;12865;51.934;10.330;2023-04-01T10:16:19;0.63;;;0.60;;
24761;SDS011;12865;51.934;10.330;2023-04-01T10:32:45;0.57;;;0.57;;
24761;SDS011;12865;51.934;10.330;2023-04-01T10:38:59;0.77;;;0.50;;
24761;SDS011;12865;51.934;10.330;2023-04-01T10:42:24;0.57;;;0.57;;
24761;SDS011;12865;51.934;10.330;2023-04-01T11:07:45;0.60;;;0.50;;
24761;SDS011;12865;51.934;10.330;2023-04-01T11:11:15;0.40;;;0.40;;
24761;SDS011;12865;51.934;10.330;2023-04-01T11:23:43;1.20;;;1.20;;
24761;SDS011;12865;51.934;10.330;2023-04-01T11:32:59;0.73;;;0.50;;
24761;SDS011;12865;51.934;10.330;2023-04-01T11:45:39;0.60;;;0.40;;
24761;SDS011;12865;51.934;10.330;2023-04-01T11:55:05;2.25;;;0.70;;
24761;SDS011;12865;51.934;10.330;2023-04-01T11:58:15;1.33;;;0.40;;
24761;SDS011;12865;51.934;10.330;2023-04-01T12:01:08;2.00;;;0.40;;
24761;SDS011;12865;51.934;10.330;2023-04-01T12:07:21;0.40;;;0.40;;
24761;SDS011;12865;51.934;10.330;2023-04-01T12:10:26;0.30;;;0.30;;
24761;SDS011;12865;51.934;10.330;2023-04-01T12:16:27;0.85;;;0.47;;
24761;SDS011;12865;51.934;10.330;2023-04-01T12:37:29;0.85;;;0.52;;
24761;SDS011;12865;51.934;10.330;2023-04-01T12:40:31;0.80;;;0.30;;
24761;SDS011;12865;51.934;10.330;2023-04-01T12:43:51;1.48;;;0.50;;
24761;SDS011;12865;51.934;10.330;2023-04-01T12:53:16;0.60;;;0.40;;
24761;SDS011;12865;51.934;10.330;2023-04-01T12:56:11;2.20;;;0.60;;
24761;SDS011;12865;51.934;10.330;2023-04-01T13:17:36;1.73;;;0.40;;
24761;SDS011;12865;51.934;10.330;2023-04-01T13:43:38;3.60;;;1.17;;
24761;SDS011;12865;51.934;10.330;2023-04-01T13:46:41;1.40;;;1.20;;
24761;SDS011;12865;51.934;10.330;2023-04-01T13:55:34;2.63;;;1.10;;
24761;SDS011;12865;51.934;10.330;2023-04-01T13:58:33;0.90;;;0.90;;
24761;SDS011;12865;51.934;10.330;2023-04-01T14:05:11;2.35;;;1.20;;
24761;SDS011;12865;51.934;10.330;2023-04-01T14:11:45;1.38;;;0.70;;
24761;SDS011;12865;51.934;10.330;2023-04-01T14:36:57;1.25;;;1.10;;
24761;SDS011;12865;51.934;10.330;2023-04-01T14:49:36;2.72;;;2.28;;
24761;SDS011;12865;51.934;10.330;2023-04-01T14:52:28;2.53;;;1.35;;
24761;SDS011;12865;51.934;10.330;2023-04-01T14:58:44;1.25;;;1.20;;
24761;SDS011;12865;51.934;10.330;2023-04-01T15:04:54;4.03;;;1.65;;
24761;SDS011;12865;51.934;10.330;2023-04-01T15:27:02;2.05;;;1.77;;
24761;SDS011;12865;51.934;10.330;2023-04-01T15:32:54;1.80;;;1.70;;
24761;SDS011;12865;51.934;10.330;2023-04-01T15:45:15;2.50;;;2.30;;
24761;SDS011;12865;51.934;10.330;2023-04-01T15:48:42;3.67;;;2.30;;
24761;SDS011;12865;51.934;10.330;2023-04-01T15:55:14;3.97;;;2.53;;
24761;SDS011;12865;51.934;10.330;2023-04-01T16:01:27;4.90;;;4.50;;
24761;SDS011;12865;51.934;10.330;2023-04-01T16:07:36;6.20;;;5.80;;
24761;SDS011;12865;51.934;10.330;2023-04-01T16:10:38;2.40;;;2.05;;
24761;SDS011;12865;51.934;10.330;2023-04-01T16:13:48;2.47;;;1.80;;
24761;SDS011;12865;51.934;10.330;2023-04-01T16:17:11;2.65;;;1.88;;
24761;SDS011;12865;51.934;10.330;2023-04-01T16:23:00;4.15;;;2.63;;
24761;SDS011;12865;51.934;10.330;2023-04-01T16:26:42;3.97;;;3.03;;
24761;SDS011;12865;51.934;10.330;2023-04-01T16:35:25;4.25;;;3.53;;
24761;SDS011;12865;51.934;10.330;2023-04-01T16:38:25;2.85;;;2.33;;
24761;SDS011;12865;51.934;10.330;2023-04-01T16:41:24;4.60;;;2.88;;
24761;SDS011;12865;51.934;10.330;2023-04-01T16:44:19;4.97;;;2.63;;
24761;SDS011;12865;51.934;10.330;2023-04-01T16:47:09;1.42;;;1.30;;
24761;SDS011;12865;51.934;10.330;2023-04-01T16:50:15;1.30;;;1.20;;
24761;SDS011;12865;51.934;10.330;2023-04-01T16:53:14;2.08;;;1.88;;
24761;SDS011;12865;51.934;10.330;2023-04-01T16:56:07;3.40;;;3.17;;
24761;SDS011;12865;51.934;10.330;2023-04-01T17:02:00;4.20;;;3.90;;
24761;SDS011;12865;51.934;10.330;2023-04-01T17:04:58;3.90;;;3.60;;
24761;SDS011;12865;51.934;10.330;2023-04-01T17:10:37;4.07;;;3.78;;
24761;SDS011;12865;51.934;10.330;2023-04-01T17:22:21;3.75;;;3.45;;
24761;SDS011;12865;51.934;10.330;2023-04-01T17:31:33;4.03;;;3.72;;
24761;SDS011;12865;51.934;10.330;2023-04-01T17:44:16;4.35;;;4.00;;
24761;SDS011;12865;51.934;10.330;2023-04-01T17:59:26;2.70;;;2.50;;
24761;SDS011;12865;51.934;10.330;2023-04-01T18:02:22;3.63;;;2.85;;
24761;SDS011;12865;51.934;10.330;2023-04-01T18:05:35;5.50;;;4.15;;
24761;SDS011;12865;51.934;10.330;2023-04-01T18:24:14;4.47;;;4.05;;
24761;SDS011;12865;51.934;10.330;2023-04-01T18:27:36;3.45;;;3.15;;
24761;SDS011;12865;51.934;10.330;2023-04-01T18:30:49;3.08;;;2.88;;
24761;SDS011;12865;51.934;10.330;2023-04-01T18:39:14;2.83;;;2.72;;
24761;SDS011;12865;51.934;10.330;2023-04-01T18:45:27;3.10;;;2.85;;
24761;SDS011;12865;51.934;10.330;2023-04-01T19:00:20;3.10;;;2.90;;
24761;SDS011;12865;51.934;10.330;2023-04-01T19:06:20;3.78;;;3.47;;
24761;SDS011;12865;51.934;10.330;2023-04-01T19:09:27;3.25;;;3.05;;
24761;SDS011;12865;51.934;10.330;2023-04-01T19:15:14;3.00;;;2.80;;
24761;SDS011;12865;51.934;10.330;2023-04-01T19:24:39;2.95;;;2.75;;
24761;SDS011;12865;51.934;10.330;2023-04-01T19:27:29;2.53;;;2.33;;
24761;SDS011;12865;51.934;10.330;2023-04-01T19:33:25;2.33;;;2.10;;
24761;SDS011;12865;51.934;10.330;2023-04-01T19:36:36;2.55;;;2.35;;
24761;SDS011;12865;51.934;10.330;2023-04-01T19:42:48;2.05;;;1.95;;
24761;SDS011;12865;51.934;10.330;2023-04-01T19:48:34;1.98;;;1.88;;
24761;SDS011;12865;51.934;10.330;2023-04-01T19:51:31;2.42;;;2.22;;
24761;SDS011;12865;51.934;10.330;2023-04-01T19:54:25;2.20;;;2.10;;
24761;SDS011;12865;51.934;10.330;2023-04-01T20:00:25;2.17;;;2.08;;
24761;SDS011;12865;51.934;10.330;2023-04-01T20:04:17;2.25;;;2.05;;
24761;SDS011;12865;51.934;10.330;2023-04-01T20:15:45;1.38;;;1.27;;
24761;SDS011;12865;51.934;10.330;2023-04-01T20:18:47;1.92;;;1.48;;
24761;SDS011;12865;51.934;10.330;2023-04-01T20:21:42;1.65;;;1.55;;
24761;SDS011;12865;51.934;10.330;2023-04-01T20:24:41;1.60;;;1.50;;
24761;SDS011;12865;51.934;10.330;2023-04-01T20:27:33;1.80;;;1.70;;
24761;SDS011;12865;51.934;10.330;2023-04-01T20:33:47;1.73;;;1.63;;
24761;SDS011;12865;51.934;10.330;2023-04-01T20:39:27;2.00;;;1.90;;
24761;SDS011;12865;51.934;10.330;2023-04-01T20:42:26;1.75;;;1.65;;
24761;SDS011;12865;51.934;10.330;2023-04-01T20:51:06;1.80;;;1.70;;
24761;SDS011;12865;51.934;10.330;2023-04-01T20:59:59;2.95;;;2.70;;
24761;SDS011;12865;51.934;10.330;2023-04-01T21:15:04;2.75;;;2.53;;
24761;SDS011;12865;51.934;10.330;2023-04-01T21:21:54;2.05;;;1.92;;
24761;SDS011;12865;51.934;10.330;2023-04-01T21:24:41;2.72;;;2.53;;
24761;SDS011;12865;51.934;10.330;2023-04-01T21:27:46;2.55;;;2.38;;
24761;SDS011;12865;51.934;10.330;2023-04-01T21:47:08;2.30;;;2.20;;
24761;SDS011;12865;51.934;10.330;2023-04-01T22:00:09;3.85;;;2.70;;
24761;SDS011;12865;51.934;10.330;2023-04-01T22:06:08;3.10;;;2.80;;
24761;SDS011;12865;51.934;10.330;2023-04-01T22:09:15;2.80;;;2.60;;
24761;SDS011;12865;51.934;10.330;2023-04-01T22:12:17;2.95;;;2.65;;
24761;SDS011;12865;51.934;10.330;2023-04-01T22:18:43;3.03;;;2.80;;
24761;SDS011;12865;51.934;10.330;2023-04-01T22:27:58;2.10;;;2.00;;
24761;SDS011;12865;51.934;10.330;2023-04-01T22:30:52;2.05;;;1.95;;
24761;SDS011;12865;51.934;10.330;2023-04-01T22:33:48;2.22;;;2.08;;
24761;SDS011;12865;51.934;10.330;2023-04-01T22:36:59;2.47;;;2.28;;
24761;SDS011;12865;51.934;10.330;2023-04-01T22:43:15;2.55;;;2.35;;
24761;SDS011;12865;51.934;10.330;2023-04-01T22:49:09;2.70;;;2.30;;
24761;SDS011;12865;51.934;10.330;2023-04-01T22:55:23;2.65;;;2.45;;
24761;SDS011;12865;51.934;10.330;2023-04-01T22:58:18;3.10;;;2.80;;
24761;SDS011;12865;51.934;10.330;2023-04-01T23:01:14;2.90;;;2.70;;
24761;SDS011;12865;51.934;10.330;2023-04-01T23:04:07;3.05;;;2.28;;
24761;SDS011;12865;51.934;10.330;2023-04-01T23:07:02;3.83;;;2.65;;
24761;SDS011;12865;51.934;10.330;2023-04-01T23:09:58;3.75;;;2.13;;
24761;SDS011;12865;51.934;10.330;2023-04-01T23:12:47;2.40;;;2.20;;
24761;SDS011;12865;51.934;10.330;2023-04-01T23:15:36;2.90;;;2.63;;
24761;SDS011;12865;51.934;10.330;2023-04-01T23:18:24;2.38;;;2.17;;
24761;SDS011;12865;51.934;10.330;2023-04-01T23:21:21;2.45;;;2.30;;
24761;SDS011;12865;51.934;10.330;2023-04-01T23:27:07;3.03;;;2.83;;
24761;SDS011;12865;51.934;10.330;2023-04-01T23:30:00;2.80;;;2.60;;
24761;SDS011;12865;51.934;10.330;2023-04-01T23:32:46;2.80;;;2.60;;
24761;SDS011;12865;51.934;10.330;2023-04-01T23:35:32;2.92;;;2.70;;
24761;SDS011;12865;51.934;10.330;2023-04-01T23:38:18;4.38;;;3.10;;
24761;SDS011;12865;51.934;10.330;2023-04-01T23:41:05;3.22;;;3.03;;
24761;SDS011;12865;51.934;10.330;2023-04-01T23:43:56;3.17;;;2.97;;
24761;SDS011;12865;51.934;10.330;2023-04-01T23:46:46;3.58;;;2.95;;
24761;SDS011;12865;51.934;10.330;2023-04-01T23:49:55;3.35;;;2.90;;
24761;SDS011;12865;51.934;10.330;2023-04-01T23:53:02;3.05;;;2.72;;
24761;SDS011;12865;51.934;10.330;2023-04-01T23:55:56;3.00;;;2.72;;
24761;SDS011;12865;51.934;10.330;2023-04-01T23:58:48;2.75;;;2.55;;
